sensor_id;sensor_type;location;lat;lon;timestamp;P1;durP1;ratioP1;P2;durP2;ratioP2
54428;SDS011;40337;52.978;6.310;2023-04-24T00:01:15;3.10;;;2.20;;
54428;SDS011;40337;52.978;6.310;2023-04-24T00:03:42;2.50;;;1.80;;
54428;SDS011;40337;52.978;6.310;2023-04-24T00:06:07;3.05;;;1.63;;
54428;SDS011;40337;52.978;6.310;2023-04-24T00:08:36;2.85;;;1.70;;
54428;SDS011;40337;52.978;6.310;2023-04-24T00:11:02;2.63;;;1.90;;
54428;SDS011;40337;52.978;6.310;2023-04-24T00:13:28;2.85;;;1.80;;
54428;SDS011;40337;52.978;6.310;2023-04-24T00:15:54;2.20;;;1.48;;
54428;SDS011;40337;52.978;6.310;2023-04-24T00:18:20;3.30;;;1.70;;
54428;SDS011;40337;52.978;6.310;2023-04-24T00:20:45;2.70;;;1.67;;
54428;SDS011;40337;52.978;6.310;2023-04-24T00:23:11;3.33;;;1.70;;
54428;SDS011;40337;52.978;6.310;2023-04-24T00:25:37;2.40;;;1.50;;
54428;SDS011;40337;52.978;6.310;2023-04-24T00:28:03;2.47;;;1.75;;
54428;SDS011;40337;52.978;6.310;2023-04-24T00:30:29;2.17;;;1.50;;
54428;SDS011;40337;52.978;6.310;2023-04-24T00:32:55;2.63;;;1.40;;
54428;SDS011;40337;52.978;6.310;2023-04-24T00:35:20;2.50;;;1.40;;
54428;SDS011;40337;52.978;6.310;2023-04-24T00:37:46;2.15;;;1.40;;
54428;SDS011;40337;52.978;6.310;2023-04-24T00:40:12;2.40;;;1.40;;
54428;SDS011;40337;52.978;6.310;2023-04-24T00:42:37;2.67;;;1.40;;
54428;SDS011;40337;52.978;6.310;2023-04-24T00:45:05;2.53;;;1.20;;
54428;SDS011;40337;52.978;6.310;2023-04-24T00:47:31;2.03;;;1.40;;
54428;SDS011;40337;52.978;6.310;2023-04-24T00:49:58;1.50;;;1.33;;
54428;SDS011;40337;52.978;6.310;2023-04-24T00:52:25;2.83;;;1.35;;
54428;SDS011;40337;52.978;6.310;2023-04-24T00:54:51;1.67;;;1.40;;
54428;SDS011;40337;52.978;6.310;2023-04-24T00:57:16;2.17;;;1.60;;
54428;SDS011;40337;52.978;6.310;2023-04-24T00:59:42;1.95;;;1.50;;
54428;SDS011;40337;52.978;6.310;2023-04-24T01:02:09;2.42;;;1.60;;
54428;SDS011;40337;52.978;6.310;2023-04-24T01:04:36;2.10;;;1.60;;
54428;SDS011;40337;52.978;6.310;2023-04-24T01:07:02;2.22;;;1.70;;
54428;SDS011;40337;52.978;6.310;2023-04-24T01:09:28;3.20;;;1.63;;
54428;SDS011;40337;52.978;6.310;2023-04-24T01:11:54;2.70;;;1.58;;
54428;SDS011;40337;52.978;6.310;2023-04-24T01:14:20;2.63;;;1.83;;
54428;SDS011;40337;52.978;6.310;2023-04-24T01:16:45;6.28;;;2.30;;
54428;SDS011;40337;52.978;6.310;2023-04-24T01:19:11;2.78;;;1.95;;
54428;SDS011;40337;52.978;6.310;2023-04-24T01:21:39;3.30;;;2.30;;
54428;SDS011;40337;52.978;6.310;2023-04-24T01:24:08;3.00;;;2.20;;
54428;SDS011;40337;52.978;6.310;2023-04-24T01:26:34;3.40;;;2.60;;
54428;SDS011;40337;52.978;6.310;2023-04-24T01:28:59;3.83;;;2.50;;
54428;SDS011;40337;52.978;6.310;2023-04-24T01:31:25;4.25;;;2.80;;
54428;SDS011;40337;52.978;6.310;2023-04-24T01:33:51;3.80;;;2.65;;
54428;SDS011;40337;52.978;6.310;2023-04-24T01:36:17;3.70;;;2.72;;
54428;SDS011;40337;52.978;6.310;2023-04-24T01:38:43;4.45;;;3.20;;
54428;SDS011;40337;52.978;6.310;2023-04-24T01:41:09;3.25;;;2.63;;
54428;SDS011;40337;52.978;6.310;2023-04-24T01:43:35;3.50;;;3.00;;
54428;SDS011;40337;52.978;6.310;2023-04-24T01:46:01;3.90;;;3.20;;
54428;SDS011;40337;52.978;6.310;2023-04-24T01:48:26;4.00;;;3.47;;
54428;SDS011;40337;52.978;6.310;2023-04-24T01:50:52;4.18;;;3.78;;
54428;SDS011;40337;52.978;6.310;2023-04-24T01:53:18;4.22;;;3.83;;
54428;SDS011;40337;52.978;6.310;2023-04-24T01:55:44;5.53;;;4.18;;
54428;SDS011;40337;52.978;6.310;2023-04-24T01:58:10;4.85;;;4.38;;
54428;SDS011;40337;52.978;6.310;2023-04-24T02:00:35;5.20;;;4.70;;
54428;SDS011;40337;52.978;6.310;2023-04-24T02:03:01;5.07;;;4.57;;
54428;SDS011;40337;52.978;6.310;2023-04-24T02:05:27;5.63;;;5.13;;
54428;SDS011;40337;52.978;6.310;2023-04-24T02:07:53;6.28;;;5.68;;
54428;SDS011;40337;52.978;6.310;2023-04-24T02:10:18;6.22;;;5.70;;
54428;SDS011;40337;52.978;6.310;2023-04-24T02:12:44;6.82;;;5.95;;
54428;SDS011;40337;52.978;6.310;2023-04-24T02:15:10;7.40;;;6.70;;
54428;SDS011;40337;52.978;6.310;2023-04-24T02:17:35;8.70;;;6.95;;
54428;SDS011;40337;52.978;6.310;2023-04-24T02:20:01;8.07;;;7.28;;
54428;SDS011;40337;52.978;6.310;2023-04-24T02:22:27;8.82;;;7.95;;
54428;SDS011;40337;52.978;6.310;2023-04-24T02:24:52;8.35;;;7.57;;
54428;SDS011;40337;52.978;6.310;2023-04-24T02:27:18;9.60;;;8.65;;
54428;SDS011;40337;52.978;6.310;2023-04-24T02:29:43;10.00;;;8.95;;
54428;SDS011;40337;52.978;6.310;2023-04-24T02:32:09;9.43;;;8.52;;
54428;SDS011;40337;52.978;6.310;2023-04-24T02:34:37;9.73;;;8.82;;
54428;SDS011;40337;52.978;6.310;2023-04-24T02:37:03;10.70;;;9.80;;
54428;SDS011;40337;52.978;6.310;2023-04-24T02:39:28;10.98;;;10.07;;
54428;SDS011;40337;52.978;6.310;2023-04-24T02:41:54;11.60;;;10.60;;
54428;SDS011;40337;52.978;6.310;2023-04-24T02:44:19;12.13;;;10.93;;
54428;SDS011;40337;52.978;6.310;2023-04-24T02:46:46;12.23;;;11.10;;
54428;SDS011;40337;52.978;6.310;2023-04-24T02:49:12;11.68;;;10.68;;
54428;SDS011;40337;52.978;6.310;2023-04-24T02:51:37;11.20;;;10.30;;
54428;SDS011;40337;52.978;6.310;2023-04-24T02:54:06;10.68;;;9.77;;
54428;SDS011;40337;52.978;6.310;2023-04-24T02:56:37;10.85;;;9.85;;
54428;SDS011;40337;52.978;6.310;2023-04-24T02:59:03;10.40;;;9.30;;
54428;SDS011;40337;52.978;6.310;2023-04-24T03:01:28;10.32;;;9.43;;
54428;SDS011;40337;52.978;6.310;2023-04-24T03:03:54;9.80;;;8.90;;
54428;SDS011;40337;52.978;6.310;2023-04-24T03:06:19;9.23;;;8.43;;
54428;SDS011;40337;52.978;6.310;2023-04-24T03:08:46;9.60;;;8.70;;
54428;SDS011;40337;52.978;6.310;2023-04-24T03:11:12;9.85;;;9.05;;
54428;SDS011;40337;52.978;6.310;2023-04-24T03:13:37;9.80;;;8.88;;
54428;SDS011;40337;52.978;6.310;2023-04-24T03:16:03;9.25;;;8.35;;
54428;SDS011;40337;52.978;6.310;2023-04-24T03:18:30;8.98;;;7.97;;
54428;SDS011;40337;52.978;6.310;2023-04-24T03:20:55;8.52;;;7.72;;
54428;SDS011;40337;52.978;6.310;2023-04-24T03:23:21;8.52;;;7.72;;
54428;SDS011;40337;52.978;6.310;2023-04-24T03:25:46;7.93;;;7.22;;
54428;SDS011;40337;52.978;6.310;2023-04-24T03:28:13;7.72;;;7.03;;
54428;SDS011;40337;52.978;6.310;2023-04-24T03:30:39;8.32;;;7.40;;
54428;SDS011;40337;52.978;6.310;2023-04-24T03:33:04;7.93;;;7.10;;
54428;SDS011;40337;52.978;6.310;2023-04-24T03:35:30;7.55;;;6.85;;
54428;SDS011;40337;52.978;6.310;2023-04-24T03:37:56;8.13;;;7.10;;
54428;SDS011;40337;52.978;6.310;2023-04-24T03:40:21;7.93;;;7.13;;
54428;SDS011;40337;52.978;6.310;2023-04-24T03:42:47;7.00;;;6.40;;
54428;SDS011;40337;52.978;6.310;2023-04-24T03:45:12;7.95;;;7.15;;
54428;SDS011;40337;52.978;6.310;2023-04-24T03:47:38;7.90;;;7.13;;
54428;SDS011;40337;52.978;6.310;2023-04-24T03:50:04;8.32;;;7.18;;
54428;SDS011;40337;52.978;6.310;2023-04-24T03:52:30;7.65;;;6.95;;
54428;SDS011;40337;52.978;6.310;2023-04-24T03:54:56;7.25;;;6.55;;
54428;SDS011;40337;52.978;6.310;2023-04-24T03:57:21;7.65;;;6.82;;
54428;SDS011;40337;52.978;6.310;2023-04-24T03:59:47;7.60;;;6.80;;
54428;SDS011;40337;52.978;6.310;2023-04-24T04:02:12;7.60;;;6.90;;
54428;SDS011;40337;52.978;6.310;2023-04-24T04:04:38;8.15;;;7.35;;
54428;SDS011;40337;52.978;6.310;2023-04-24T04:07:03;8.95;;;8.05;;
54428;SDS011;40337;52.978;6.310;2023-04-24T04:09:30;9.00;;;8.10;;
54428;SDS011;40337;52.978;6.310;2023-04-24T04:11:56;9.10;;;8.20;;
54428;SDS011;40337;52.978;6.310;2023-04-24T04:14:21;9.32;;;7.85;;
54428;SDS011;40337;52.978;6.310;2023-04-24T04:16:48;9.05;;;8.07;;
54428;SDS011;40337;52.978;6.310;2023-04-24T04:19:13;8.80;;;8.00;;
54428;SDS011;40337;52.978;6.310;2023-04-24T04:21:39;8.88;;;7.97;;
54428;SDS011;40337;52.978;6.310;2023-04-24T04:24:05;8.13;;;7.32;;
54428;SDS011;40337;52.978;6.310;2023-04-24T04:26:32;9.57;;;8.68;;
54428;SDS011;40337;52.978;6.310;2023-04-24T04:28:58;8.90;;;8.00;;
54428;SDS011;40337;52.978;6.310;2023-04-24T04:31:25;9.00;;;8.10;;
54428;SDS011;40337;52.978;6.310;2023-04-24T04:33:51;9.35;;;8.40;;
54428;SDS011;40337;52.978;6.310;2023-04-24T04:36:16;9.73;;;8.48;;
54428;SDS011;40337;52.978;6.310;2023-04-24T04:38:42;9.57;;;8.57;;
54428;SDS011;40337;52.978;6.310;2023-04-24T04:41:09;9.63;;;8.70;;
54428;SDS011;40337;52.978;6.310;2023-04-24T04:43:35;9.70;;;8.50;;
54428;SDS011;40337;52.978;6.310;2023-04-24T04:46:01;8.60;;;7.75;;
54428;SDS011;40337;52.978;6.310;2023-04-24T04:48:28;7.50;;;6.80;;
54428;SDS011;40337;52.978;6.310;2023-04-24T04:50:56;7.20;;;6.50;;
54428;SDS011;40337;52.978;6.310;2023-04-24T04:53:22;7.20;;;6.50;;
54428;SDS011;40337;52.978;6.310;2023-04-24T04:55:47;6.47;;;5.80;;
54428;SDS011;40337;52.978;6.310;2023-04-24T04:58:13;6.20;;;5.22;;
54428;SDS011;40337;52.978;6.310;2023-04-24T05:00:39;5.47;;;4.50;;
54428;SDS011;40337;52.978;6.310;2023-04-24T05:03:04;6.20;;;4.57;;
54428;SDS011;40337;52.978;6.310;2023-04-24T05:05:30;7.18;;;5.38;;
54428;SDS011;40337;52.978;6.310;2023-04-24T05:07:55;6.95;;;5.50;;
54428;SDS011;40337;52.978;6.310;2023-04-24T05:10:21;4.70;;;3.20;;
54428;SDS011;40337;52.978;6.310;2023-04-24T05:12:46;3.65;;;2.78;;
54428;SDS011;40337;52.978;6.310;2023-04-24T05:15:12;3.70;;;2.80;;
54428;SDS011;40337;52.978;6.310;2023-04-24T05:17:37;3.70;;;3.00;;
54428;SDS011;40337;52.978;6.310;2023-04-24T05:20:05;3.55;;;2.80;;
54428;SDS011;40337;52.978;6.310;2023-04-24T05:22:31;3.63;;;2.60;;
54428;SDS011;40337;52.978;6.310;2023-04-24T05:24:57;3.72;;;2.80;;
54428;SDS011;40337;52.978;6.310;2023-04-24T05:27:22;3.63;;;2.95;;
54428;SDS011;40337;52.978;6.310;2023-04-24T05:29:49;4.18;;;3.10;;
54428;SDS011;40337;52.978;6.310;2023-04-24T05:32:14;4.57;;;3.20;;
54428;SDS011;40337;52.978;6.310;2023-04-24T05:34:40;4.47;;;3.35;;
54428;SDS011;40337;52.978;6.310;2023-04-24T05:37:05;4.78;;;3.50;;
54428;SDS011;40337;52.978;6.310;2023-04-24T05:39:33;4.70;;;3.67;;
54428;SDS011;40337;52.978;6.310;2023-04-24T05:42:00;5.18;;;3.90;;
54428;SDS011;40337;52.978;6.310;2023-04-24T05:44:26;5.40;;;3.95;;
54428;SDS011;40337;52.978;6.310;2023-04-24T05:46:52;5.47;;;3.50;;
54428;SDS011;40337;52.978;6.310;2023-04-24T05:49:17;5.28;;;3.80;;
54428;SDS011;40337;52.978;6.310;2023-04-24T05:51:43;4.90;;;3.63;;
54428;SDS011;40337;52.978;6.310;2023-04-24T05:54:08;6.30;;;3.45;;
54428;SDS011;40337;52.978;6.310;2023-04-24T05:56:35;5.57;;;3.92;;
54428;SDS011;40337;52.978;6.310;2023-04-24T05:59:01;6.35;;;4.30;;
54428;SDS011;40337;52.978;6.310;2023-04-24T06:01:26;7.05;;;5.10;;
54428;SDS011;40337;52.978;6.310;2023-04-24T06:03:52;6.53;;;4.80;;
54428;SDS011;40337;52.978;6.310;2023-04-24T06:06:18;6.22;;;4.40;;
54428;SDS011;40337;52.978;6.310;2023-04-24T06:08:44;6.18;;;4.85;;
54428;SDS011;40337;52.978;6.310;2023-04-24T06:11:10;8.73;;;5.97;;
54428;SDS011;40337;52.978;6.310;2023-04-24T06:13:35;6.32;;;5.43;;
54428;SDS011;40337;52.978;6.310;2023-04-24T06:16:01;6.53;;;4.85;;
54428;SDS011;40337;52.978;6.310;2023-04-24T06:18:27;7.78;;;5.35;;
54428;SDS011;40337;52.978;6.310;2023-04-24T06:20:52;7.32;;;5.70;;
54428;SDS011;40337;52.978;6.310;2023-04-24T06:23:18;6.40;;;5.45;;
54428;SDS011;40337;52.978;6.310;2023-04-24T06:25:43;7.10;;;6.13;;
54428;SDS011;40337;52.978;6.310;2023-04-24T06:28:09;7.63;;;6.18;;
54428;SDS011;40337;52.978;6.310;2023-04-24T06:30:34;7.53;;;5.85;;
54428;SDS011;40337;52.978;6.310;2023-04-24T06:33:00;7.30;;;5.63;;
54428;SDS011;40337;52.978;6.310;2023-04-24T06:35:26;7.00;;;4.97;;
54428;SDS011;40337;52.978;6.310;2023-04-24T06:37:51;6.07;;;4.72;;
54428;SDS011;40337;52.978;6.310;2023-04-24T06:40:17;5.47;;;4.18;;
54428;SDS011;40337;52.978;6.310;2023-04-24T06:42:43;5.40;;;3.70;;
54428;SDS011;40337;52.978;6.310;2023-04-24T06:45:09;5.80;;;3.63;;
54428;SDS011;40337;52.978;6.310;2023-04-24T06:47:35;6.65;;;3.47;;
54428;SDS011;40337;52.978;6.310;2023-04-24T06:50:01;4.80;;;3.03;;
54428;SDS011;40337;52.978;6.310;2023-04-24T06:52:26;6.07;;;3.40;;
54428;SDS011;40337;52.978;6.310;2023-04-24T06:54:52;5.40;;;3.70;;
54428;SDS011;40337;52.978;6.310;2023-04-24T06:57:17;6.10;;;3.00;;
54428;SDS011;40337;52.978;6.310;2023-04-24T06:59:44;5.97;;;3.35;;
54428;SDS011;40337;52.978;6.310;2023-04-24T07:02:10;5.50;;;3.80;;
54428;SDS011;40337;52.978;6.310;2023-04-24T07:04:35;8.57;;;4.88;;
54428;SDS011;40337;52.978;6.310;2023-04-24T07:07:01;7.45;;;5.28;;
54428;SDS011;40337;52.978;6.310;2023-04-24T07:09:27;6.88;;;3.60;;
54428;SDS011;40337;52.978;6.310;2023-04-24T07:11:53;4.97;;;2.97;;
54428;SDS011;40337;52.978;6.310;2023-04-24T07:14:20;6.25;;;2.90;;
54428;SDS011;40337;52.978;6.310;2023-04-24T07:16:45;5.60;;;3.17;;
54428;SDS011;40337;52.978;6.310;2023-04-24T07:19:12;5.10;;;2.70;;
54428;SDS011;40337;52.978;6.310;2023-04-24T07:21:38;6.53;;;3.28;;
54428;SDS011;40337;52.978;6.310;2023-04-24T07:24:03;5.50;;;3.10;;
54428;SDS011;40337;52.978;6.310;2023-04-24T07:26:29;6.20;;;3.25;;
54428;SDS011;40337;52.978;6.310;2023-04-24T07:28:55;6.30;;;3.20;;
54428;SDS011;40337;52.978;6.310;2023-04-24T07:31:21;6.53;;;3.22;;
54428;SDS011;40337;52.978;6.310;2023-04-24T07:33:47;8.10;;;3.42;;
54428;SDS011;40337;52.978;6.310;2023-04-24T07:36:13;6.05;;;3.47;;
54428;SDS011;40337;52.978;6.310;2023-04-24T07:38:42;8.90;;;5.38;;
54428;SDS011;40337;52.978;6.310;2023-04-24T07:41:08;9.02;;;3.63;;
54428;SDS011;40337;52.978;6.310;2023-04-24T07:43:33;5.78;;;3.28;;
54428;SDS011;40337;52.978;6.310;2023-04-24T07:45:59;6.60;;;3.90;;
54428;SDS011;40337;52.978;6.310;2023-04-24T07:48:25;10.05;;;5.28;;
54428;SDS011;40337;52.978;6.310;2023-04-24T07:50:51;9.00;;;5.93;;
54428;SDS011;40337;52.978;6.310;2023-04-24T07:53:17;9.85;;;6.53;;
54428;SDS011;40337;52.978;6.310;2023-04-24T07:55:42;10.85;;;7.32;;
54428;SDS011;40337;52.978;6.310;2023-04-24T07:58:08;12.73;;;8.98;;
54428;SDS011;40337;52.978;6.310;2023-04-24T08:00:34;10.73;;;8.43;;
54428;SDS011;40337;52.978;6.310;2023-04-24T08:03:00;14.05;;;9.88;;
54428;SDS011;40337;52.978;6.310;2023-04-24T08:05:25;13.30;;;9.63;;
54428;SDS011;40337;52.978;6.310;2023-04-24T08:07:52;14.20;;;9.75;;
54428;SDS011;40337;52.978;6.310;2023-04-24T08:10:18;14.68;;;10.02;;
54428;SDS011;40337;52.978;6.310;2023-04-24T08:12:43;14.35;;;10.40;;
54428;SDS011;40337;52.978;6.310;2023-04-24T08:15:09;13.32;;;9.77;;
54428;SDS011;40337;52.978;6.310;2023-04-24T08:17:35;15.85;;;10.23;;
54428;SDS011;40337;52.978;6.310;2023-04-24T08:20:01;13.77;;;9.65;;
54428;SDS011;40337;52.978;6.310;2023-04-24T08:22:29;16.67;;;10.40;;
54428;SDS011;40337;52.978;6.310;2023-04-24T08:24:55;13.38;;;10.48;;
54428;SDS011;40337;52.978;6.310;2023-04-24T08:27:22;17.17;;;12.10;;
54428;SDS011;40337;52.978;6.310;2023-04-24T08:29:52;23.42;;;11.57;;
54428;SDS011;40337;52.978;6.310;2023-04-24T08:32:18;17.05;;;12.82;;
54428;SDS011;40337;52.978;6.310;2023-04-24T08:34:44;17.80;;;13.10;;
54428;SDS011;40337;52.978;6.310;2023-04-24T08:37:10;20.63;;;13.27;;
54428;SDS011;40337;52.978;6.310;2023-04-24T08:39:36;17.98;;;13.30;;
54428;SDS011;40337;52.978;6.310;2023-04-24T08:42:02;19.08;;;13.55;;
54428;SDS011;40337;52.978;6.310;2023-04-24T08:44:33;18.92;;;14.30;;
54428;SDS011;40337;52.978;6.310;2023-04-24T08:47:03;17.20;;;13.00;;
54428;SDS011;40337;52.978;6.310;2023-04-24T08:49:30;17.40;;;13.35;;
54428;SDS011;40337;52.978;6.310;2023-04-24T08:51:56;15.82;;;11.40;;
54428;SDS011;40337;52.978;6.310;2023-04-24T08:54:22;15.20;;;11.07;;
54428;SDS011;40337;52.978;6.310;2023-04-24T08:56:49;13.65;;;10.80;;
54428;SDS011;40337;52.978;6.310;2023-04-24T08:59:16;11.63;;;9.10;;
54428;SDS011;40337;52.978;6.310;2023-04-24T09:01:43;13.35;;;9.07;;
54428;SDS011;40337;52.978;6.310;2023-04-24T09:04:11;12.07;;;8.13;;
54428;SDS011;40337;52.978;6.310;2023-04-24T09:06:40;14.00;;;8.00;;
54428;SDS011;40337;52.978;6.310;2023-04-24T09:09:05;11.13;;;8.20;;
54428;SDS011;40337;52.978;6.310;2023-04-24T09:11:32;11.70;;;7.78;;
54428;SDS011;40337;52.978;6.310;2023-04-24T09:13:58;10.23;;;7.20;;
54428;SDS011;40337;52.978;6.310;2023-04-24T09:16:25;10.35;;;7.30;;
54428;SDS011;40337;52.978;6.310;2023-04-24T09:18:51;11.30;;;7.10;;
54428;SDS011;40337;52.978;6.310;2023-04-24T09:21:17;10.43;;;7.45;;
54428;SDS011;40337;52.978;6.310;2023-04-24T09:23:46;15.30;;;6.88;;
54428;SDS011;40337;52.978;6.310;2023-04-24T09:26:12;11.18;;;7.38;;
54428;SDS011;40337;52.978;6.310;2023-04-24T09:28:39;11.63;;;7.30;;
54428;SDS011;40337;52.978;6.310;2023-04-24T09:31:11;12.50;;;7.40;;
54428;SDS011;40337;52.978;6.310;2023-04-24T09:33:39;12.48;;;6.97;;
54428;SDS011;40337;52.978;6.310;2023-04-24T09:36:05;11.82;;;6.95;;
54428;SDS011;40337;52.978;6.310;2023-04-24T09:38:37;11.23;;;6.90;;
54428;SDS011;40337;52.978;6.310;2023-04-24T09:41:07;11.95;;;6.90;;
54428;SDS011;40337;52.978;6.310;2023-04-24T09:43:38;10.50;;;6.57;;
54428;SDS011;40337;52.978;6.310;2023-04-24T09:46:04;11.23;;;6.38;;
54428;SDS011;40337;52.978;6.310;2023-04-24T09:48:35;10.25;;;5.70;;
54428;SDS011;40337;52.978;6.310;2023-04-24T09:51:03;10.98;;;5.80;;
54428;SDS011;40337;52.978;6.310;2023-04-24T09:53:32;10.60;;;5.43;;
54428;SDS011;40337;52.978;6.310;2023-04-24T09:56:15;9.00;;;4.90;;
54428;SDS011;40337;52.978;6.310;2023-04-24T09:58:41;9.43;;;4.90;;
54428;SDS011;40337;52.978;6.310;2023-04-24T10:01:06;12.18;;;4.97;;
54428;SDS011;40337;52.978;6.310;2023-04-24T10:03:32;8.60;;;4.28;;
54428;SDS011;40337;52.978;6.310;2023-04-24T10:05:59;10.45;;;3.90;;
54428;SDS011;40337;52.978;6.310;2023-04-24T10:08:25;9.55;;;4.00;;
54428;SDS011;40337;52.978;6.310;2023-04-24T10:10:57;8.82;;;4.05;;
54428;SDS011;40337;52.978;6.310;2023-04-24T10:13:23;8.27;;;4.00;;
54428;SDS011;40337;52.978;6.310;2023-04-24T10:15:49;10.15;;;4.85;;
54428;SDS011;40337;52.978;6.310;2023-04-24T10:18:15;9.82;;;4.15;;
54428;SDS011;40337;52.978;6.310;2023-04-24T10:20:41;10.30;;;4.35;;
54428;SDS011;40337;52.978;6.310;2023-04-24T10:23:07;12.00;;;4.38;;
54428;SDS011;40337;52.978;6.310;2023-04-24T10:25:33;8.70;;;3.67;;
54428;SDS011;40337;52.978;6.310;2023-04-24T10:28:00;12.23;;;4.20;;
54428;SDS011;40337;52.978;6.310;2023-04-24T10:30:27;7.60;;;3.25;;
54428;SDS011;40337;52.978;6.310;2023-04-24T10:33:04;8.25;;;3.47;;
54428;SDS011;40337;52.978;6.310;2023-04-24T10:35:33;9.13;;;2.90;;
54428;SDS011;40337;52.978;6.310;2023-04-24T10:38:03;8.73;;;2.90;;
54428;SDS011;40337;52.978;6.310;2023-04-24T10:40:33;7.30;;;3.08;;
54428;SDS011;40337;52.978;6.310;2023-04-24T10:43:03;9.60;;;3.15;;
54428;SDS011;40337;52.978;6.310;2023-04-24T10:45:36;9.00;;;3.05;;
54428;SDS011;40337;52.978;6.310;2023-04-24T10:48:09;8.07;;;3.42;;
54428;SDS011;40337;52.978;6.310;2023-04-24T10:50:45;10.95;;;3.13;;
54428;SDS011;40337;52.978;6.310;2023-04-24T10:53:16;8.40;;;3.17;;
54428;SDS011;40337;52.978;6.310;2023-04-24T10:55:44;10.85;;;3.42;;
54428;SDS011;40337;52.978;6.310;2023-04-24T10:58:12;9.23;;;3.13;;
54428;SDS011;40337;52.978;6.310;2023-04-24T11:00:38;11.18;;;3.03;;
54428;SDS011;40337;52.978;6.310;2023-04-24T11:03:22;8.75;;;2.50;;
54428;SDS011;40337;52.978;6.310;2023-04-24T11:05:50;10.55;;;3.22;;
54428;SDS011;40337;52.978;6.310;2023-04-24T11:08:36;6.80;;;2.60;;
54428;SDS011;40337;52.978;6.310;2023-04-24T11:11:13;7.88;;;3.08;;
54428;SDS011;40337;52.978;6.310;2023-04-24T11:16:38;6.82;;;2.47;;
54428;SDS011;40337;52.978;6.310;2023-04-24T11:19:17;9.00;;;2.97;;
54428;SDS011;40337;52.978;6.310;2023-04-24T11:22:01;10.98;;;2.60;;
54428;SDS011;40337;52.978;6.310;2023-04-24T11:24:39;9.88;;;2.88;;
54428;SDS011;40337;52.978;6.310;2023-04-24T11:27:15;11.35;;;2.97;;
54428;SDS011;40337;52.978;6.310;2023-04-24T11:32:55;8.02;;;2.50;;
54428;SDS011;40337;52.978;6.310;2023-04-24T11:37:43;7.47;;;2.63;;
54428;SDS011;40337;52.978;6.310;2023-04-24T11:40:14;7.90;;;2.58;;
54428;SDS011;40337;52.978;6.310;2023-04-24T11:42:42;7.00;;;2.20;;
54428;SDS011;40337;52.978;6.310;2023-04-24T11:45:09;7.13;;;2.40;;
54428;SDS011;40337;52.978;6.310;2023-04-24T11:47:37;10.60;;;2.63;;
54428;SDS011;40337;52.978;6.310;2023-04-24T11:50:05;7.40;;;2.83;;
54428;SDS011;40337;52.978;6.310;2023-04-24T11:52:33;8.82;;;2.40;;
54428;SDS011;40337;52.978;6.310;2023-04-24T11:55:02;8.40;;;2.20;;
54428;SDS011;40337;52.978;6.310;2023-04-24T11:57:29;7.43;;;2.20;;
54428;SDS011;40337;52.978;6.310;2023-04-24T12:00:03;5.97;;;2.00;;
54428;SDS011;40337;52.978;6.310;2023-04-24T12:02:30;6.35;;;2.13;;
54428;SDS011;40337;52.978;6.310;2023-04-24T12:04:55;5.60;;;1.70;;
54428;SDS011;40337;52.978;6.310;2023-04-24T12:07:22;5.90;;;2.00;;
54428;SDS011;40337;52.978;6.310;2023-04-24T12:09:58;4.47;;;1.60;;
54428;SDS011;40337;52.978;6.310;2023-04-24T12:12:26;4.78;;;1.60;;
54428;SDS011;40337;52.978;6.310;2023-04-24T12:14:54;3.38;;;1.30;;
54428;SDS011;40337;52.978;6.310;2023-04-24T12:17:24;4.80;;;1.50;;
54428;SDS011;40337;52.978;6.310;2023-04-24T12:19:51;3.97;;;1.23;;
54428;SDS011;40337;52.978;6.310;2023-04-24T12:22:18;5.13;;;1.50;;
54428;SDS011;40337;52.978;6.310;2023-04-24T12:24:56;4.50;;;1.50;;
54428;SDS011;40337;52.978;6.310;2023-04-24T12:27:27;3.95;;;1.50;;
54428;SDS011;40337;52.978;6.310;2023-04-24T12:29:58;4.53;;;1.63;;
54428;SDS011;40337;52.978;6.310;2023-04-24T12:32:24;4.32;;;1.48;;
54428;SDS011;40337;52.978;6.310;2023-04-24T12:34:50;3.95;;;1.40;;
54428;SDS011;40337;52.978;6.310;2023-04-24T12:37:17;4.45;;;1.50;;
54428;SDS011;40337;52.978;6.310;2023-04-24T12:42:32;4.80;;;1.60;;
54428;SDS011;40337;52.978;6.310;2023-04-24T12:44:59;6.55;;;1.70;;
54428;SDS011;40337;52.978;6.310;2023-04-24T12:47:27;4.47;;;1.50;;
54428;SDS011;40337;52.978;6.310;2023-04-24T12:49:54;5.63;;;2.05;;
54428;SDS011;40337;52.978;6.310;2023-04-24T12:52:23;5.57;;;1.70;;
54428;SDS011;40337;52.978;6.310;2023-04-24T12:54:52;5.10;;;1.48;;
54428;SDS011;40337;52.978;6.310;2023-04-24T12:57:18;6.38;;;2.22;;
54428;SDS011;40337;52.978;6.310;2023-04-24T12:59:44;4.53;;;1.38;;
54428;SDS011;40337;52.978;6.310;2023-04-24T13:02:10;4.35;;;1.55;;
54428;SDS011;40337;52.978;6.310;2023-04-24T13:04:36;4.35;;;1.52;;
54428;SDS011;40337;52.978;6.310;2023-04-24T13:07:01;7.63;;;1.95;;
54428;SDS011;40337;52.978;6.310;2023-04-24T13:09:27;6.82;;;1.60;;
54428;SDS011;40337;52.978;6.310;2023-04-24T13:11:53;3.88;;;1.25;;
54428;SDS011;40337;52.978;6.310;2023-04-24T13:14:19;4.25;;;1.30;;
54428;SDS011;40337;52.978;6.310;2023-04-24T13:16:45;3.00;;;1.33;;
54428;SDS011;40337;52.978;6.310;2023-04-24T13:19:10;5.00;;;1.30;;
54428;SDS011;40337;52.978;6.310;2023-04-24T13:21:36;4.22;;;1.30;;
54428;SDS011;40337;52.978;6.310;2023-04-24T13:24:01;4.32;;;1.40;;
54428;SDS011;40337;52.978;6.310;2023-04-24T13:26:29;6.22;;;1.60;;
54428;SDS011;40337;52.978;6.310;2023-04-24T13:28:55;3.45;;;1.25;;
54428;SDS011;40337;52.978;6.310;2023-04-24T13:31:21;5.00;;;1.55;;
54428;SDS011;40337;52.978;6.310;2023-04-24T13:33:46;2.20;;;1.25;;
54428;SDS011;40337;52.978;6.310;2023-04-24T13:36:12;4.55;;;1.20;;
54428;SDS011;40337;52.978;6.310;2023-04-24T13:38:38;4.88;;;1.35;;
54428;SDS011;40337;52.978;6.310;2023-04-24T13:41:03;3.05;;;1.15;;
54428;SDS011;40337;52.978;6.310;2023-04-24T13:43:29;5.07;;;1.67;;
54428;SDS011;40337;52.978;6.310;2023-04-24T13:45:54;3.58;;;1.30;;
54428;SDS011;40337;52.978;6.310;2023-04-24T13:48:20;4.78;;;1.40;;
54428;SDS011;40337;52.978;6.310;2023-04-24T13:50:46;5.97;;;1.63;;
54428;SDS011;40337;52.978;6.310;2023-04-24T13:53:13;5.07;;;1.60;;
54428;SDS011;40337;52.978;6.310;2023-04-24T13:55:39;6.85;;;1.98;;
54428;SDS011;40337;52.978;6.310;2023-04-24T13:58:05;6.95;;;1.90;;
54428;SDS011;40337;52.978;6.310;2023-04-24T14:00:31;6.05;;;1.75;;
54428;SDS011;40337;52.978;6.310;2023-04-24T14:02:57;7.93;;;2.13;;
54428;SDS011;40337;52.978;6.310;2023-04-24T14:05:22;6.53;;;2.17;;
54428;SDS011;40337;52.978;6.310;2023-04-24T14:07:48;7.20;;;2.20;;
54428;SDS011;40337;52.978;6.310;2023-04-24T14:10:13;7.63;;;2.30;;
54428;SDS011;40337;52.978;6.310;2023-04-24T14:12:39;7.85;;;2.42;;
54428;SDS011;40337;52.978;6.310;2023-04-24T14:15:05;9.20;;;2.33;;
54428;SDS011;40337;52.978;6.310;2023-04-24T14:17:31;7.50;;;2.38;;
54428;SDS011;40337;52.978;6.310;2023-04-24T14:19:56;10.20;;;2.50;;
54428;SDS011;40337;52.978;6.310;2023-04-24T14:22:24;7.20;;;2.47;;
54428;SDS011;40337;52.978;6.310;2023-04-24T14:24:50;9.52;;;2.60;;
54428;SDS011;40337;52.978;6.310;2023-04-24T14:27:15;8.32;;;2.33;;
54428;SDS011;40337;52.978;6.310;2023-04-24T14:29:41;7.47;;;2.60;;
54428;SDS011;40337;52.978;6.310;2023-04-24T14:32:07;7.55;;;2.40;;
54428;SDS011;40337;52.978;6.310;2023-04-24T14:34:34;7.80;;;2.72;;
54428;SDS011;40337;52.978;6.310;2023-04-24T14:36:59;7.82;;;2.70;;
54428;SDS011;40337;52.978;6.310;2023-04-24T14:39:25;9.35;;;2.85;;
54428;SDS011;40337;52.978;6.310;2023-04-24T14:41:51;10.60;;;2.92;;
54428;SDS011;40337;52.978;6.310;2023-04-24T14:44:16;8.15;;;2.70;;
54428;SDS011;40337;52.978;6.310;2023-04-24T14:46:42;10.77;;;2.83;;
54428;SDS011;40337;52.978;6.310;2023-04-24T14:49:08;9.52;;;3.10;;
54428;SDS011;40337;52.978;6.310;2023-04-24T14:51:37;10.55;;;3.15;;